createdAt,value
2018-08-25T00:00:43.612Z,13.66
2018-08-25T00:03:12.717Z,13.70
2018-08-25T00:05:41.963Z,13.69
2018-08-25T00:08:11.423Z,13.65
2018-08-25T00:10:40.661Z,13.66
2018-08-25T00:13:09.751Z,13.71
2018-08-25T00:15:39.055Z,13.76
2018-08-25T00:18:09.873Z,13.78
2018-08-25T00:20:40.272Z,13.79
2018-08-25T00:23:09.454Z,13.75
2018-08-25T00:25:38.391Z,13.72
2018-08-25T00:28:07.421Z,13.73
2018-08-25T00:30:41.539Z,13.73
2018-08-25T00:33:10.780Z,13.67
2018-08-25T00:35:40.321Z,13.66
2018-08-25T00:38:09.408Z,13.65
2018-08-25T00:40:38.396Z,13.64
2018-08-25T00:43:07.564Z,13.65
2018-08-25T00:45:38.161Z,13.66
2018-08-25T00:48:07.583Z,13.62
2018-08-25T00:50:36.893Z,13.59
2018-08-25T00:53:05.952Z,13.57
2018-08-25T00:55:34.981Z,13.56
2018-08-25T00:58:04.274Z,13.49
2018-08-25T01:00:33.189Z,13.40
2018-08-25T01:03:02.293Z,13.32
2018-08-25T01:05:32.145Z,13.29
2018-08-25T01:08:01.265Z,13.24
2018-08-25T01:10:30.642Z,13.20
2018-08-25T01:12:59.740Z,13.17
2018-08-25T01:15:29.231Z,13.25
2018-08-25T01:17:58.186Z,13.25
2018-08-25T01:20:27.261Z,13.18
2018-08-25T01:22:56.284Z,13.08
2018-08-25T01:25:25.233Z,13.00
2018-08-25T01:27:54.726Z,12.83
2018-08-25T01:30:23.738Z,12.67
2018-08-25T01:32:53.015Z,12.51
2018-08-25T01:35:22.063Z,12.40
2018-08-25T01:37:51.114Z,12.34
2018-08-25T01:40:19.979Z,12.39
2018-08-25T01:42:49.329Z,12.45
2018-08-25T01:45:18.482Z,12.47
2018-08-25T01:47:47.522Z,12.52
2018-08-25T01:50:16.564Z,12.49
2018-08-25T01:52:45.653Z,12.47
2018-08-25T01:55:14.712Z,12.49
2018-08-25T01:57:43.813Z,12.49
2018-08-25T02:00:13.151Z,12.49
2018-08-25T02:02:42.232Z,12.48
2018-08-25T02:05:11.238Z,12.48
2018-08-25T02:07:40.284Z,12.50
2018-08-25T02:10:09.219Z,12.53
2018-08-25T02:12:38.242Z,12.54
2018-08-25T02:15:07.397Z,12.53
2018-08-25T02:17:36.851Z,12.57
2018-08-25T02:20:06.337Z,12.65
2018-08-25T02:22:35.289Z,12.72
2018-08-25T02:25:04.340Z,12.80
2018-08-25T02:27:33.584Z,12.86
2018-08-25T02:30:02.524Z,12.91
2018-08-25T02:32:31.575Z,12.93
2018-08-25T02:35:00.603Z,12.94
2018-08-25T02:37:29.623Z,12.92
2018-08-25T02:39:58.648Z,12.91
2018-08-25T02:42:27.704Z,12.88
2018-08-25T02:44:56.785Z,12.92
2018-08-25T02:47:25.753Z,12.89
2018-08-25T02:49:54.679Z,12.86
2018-08-25T02:52:23.865Z,12.86
2018-08-25T02:54:52.958Z,12.88
2018-08-25T02:57:21.959Z,12.90
2018-08-25T02:59:51.151Z,13.02
2018-08-25T03:02:20.174Z,13.16
2018-08-25T03:04:49.680Z,13.29
2018-08-25T03:07:19.065Z,13.40
2018-08-25T03:09:48.083Z,13.31
2018-08-25T03:12:17.045Z,13.13
2018-08-25T03:14:46.120Z,13.02
2018-08-25T03:17:15.069Z,12.79
2018-08-25T03:19:44.152Z,12.43
2018-08-25T03:22:13.112Z,12.28
2018-08-25T03:24:42.204Z,12.19
2018-08-25T03:27:11.286Z,12.22
2018-08-25T03:29:40.276Z,12.30
2018-08-25T03:32:09.164Z,12.36
2018-08-25T03:34:38.158Z,12.32
2018-08-25T03:37:07.199Z,12.19
2018-08-25T03:39:36.182Z,12.07
2018-08-25T03:42:05.251Z,11.93
2018-08-25T03:44:34.298Z,11.85
2018-08-25T03:47:03.316Z,11.89
2018-08-25T03:49:32.369Z,11.89
2018-08-25T03:52:01.372Z,11.86
2018-08-25T03:54:30.355Z,11.84
2018-08-25T03:56:59.326Z,11.84
2018-08-25T03:59:28.300Z,11.82
2018-08-25T04:01:57.328Z,11.80
2018-08-25T04:04:26.326Z,11.78
2018-08-25T04:06:55.196Z,11.80
2018-08-25T04:09:24.267Z,11.80
2018-08-25T04:11:53.336Z,11.79
2018-08-25T04:14:22.349Z,11.81
2018-08-25T04:16:51.356Z,11.86
2018-08-25T04:19:21.565Z,11.86
2018-08-25T04:21:51.135Z,11.81
2018-08-25T04:24:20.200Z,11.78
2018-08-25T04:26:49.167Z,11.80
2018-08-25T04:29:18.224Z,11.82
2018-08-25T04:31:47.303Z,11.81
2018-08-25T04:34:16.319Z,11.79
2018-08-25T04:36:45.277Z,11.74
2018-08-25T04:39:14.499Z,11.76
2018-08-25T04:41:43.524Z,11.69
2018-08-25T04:44:12.956Z,11.68
2018-08-25T04:46:41.994Z,11.71
2018-08-25T04:49:11.020Z,11.72
2018-08-25T04:51:40.118Z,11.80
2018-08-25T04:54:09.125Z,11.82
2018-08-25T04:56:38.204Z,11.87
2018-08-25T04:59:07.373Z,11.87
2018-08-25T05:01:36.364Z,11.89
2018-08-25T05:04:05.422Z,11.90
2018-08-25T05:06:34.412Z,11.95
2018-08-25T05:09:03.653Z,11.99
2018-08-25T05:11:32.690Z,12.01
2018-08-25T05:14:01.737Z,12.04
2018-08-25T05:16:30.803Z,12.07
2018-08-25T05:18:59.799Z,12.12
2018-08-25T05:21:28.842Z,12.17
2018-08-25T05:23:57.861Z,12.19
2018-08-25T05:26:26.924Z,12.21
2018-08-25T05:28:55.981Z,12.24
2018-08-25T05:31:25.045Z,12.23
2018-08-25T05:33:53.970Z,12.30
2018-08-25T05:36:23.037Z,12.32
2018-08-25T05:38:52.061Z,12.36
2018-08-25T05:41:21.067Z,12.33
2018-08-25T05:43:50.051Z,12.24
2018-08-25T05:46:19.101Z,12.22
2018-08-25T05:48:49.129Z,12.24
2018-08-25T05:51:18.365Z,12.26
2018-08-25T05:53:47.451Z,12.28
2018-08-25T05:56:16.525Z,12.25
2018-08-25T05:58:45.452Z,12.34
2018-08-25T06:01:14.565Z,12.32
2018-08-25T06:03:43.595Z,12.30
2018-08-25T06:06:12.719Z,12.20
2018-08-25T06:08:41.857Z,12.21
2018-08-25T06:11:10.793Z,12.26
2018-08-25T06:13:39.870Z,12.21
2018-08-25T06:16:09.275Z,12.27
2018-08-25T06:18:38.298Z,12.38
2018-08-25T06:21:07.607Z,12.52
2018-08-25T06:23:36.593Z,12.60
2018-08-25T06:26:05.672Z,12.74
2018-08-25T06:28:34.813Z,13.02
2018-08-25T06:31:03.866Z,13.06
2018-08-25T06:33:32.855Z,13.03
2018-08-25T06:36:01.913Z,13.16
2018-08-25T06:38:30.908Z,13.10
2018-08-25T06:41:00.031Z,13.05
2018-08-25T06:43:29.052Z,12.99
2018-08-25T06:46:03.206Z,12.98
2018-08-25T06:48:32.225Z,12.88
2018-08-25T06:51:01.605Z,12.84
2018-08-25T06:53:30.493Z,12.89
2018-08-25T06:55:59.546Z,12.99
2018-08-25T06:58:28.687Z,12.99
2018-08-25T07:00:57.772Z,12.93
2018-08-25T07:03:26.651Z,12.84
2018-08-25T07:05:55.906Z,12.70
2018-08-25T07:08:24.798Z,12.47
2018-08-25T07:10:54.482Z,12.45
2018-08-25T07:13:23.527Z,12.56
2018-08-25T07:15:52.673Z,12.73
2018-08-25T07:18:21.781Z,12.78
2018-08-25T07:20:50.894Z,12.78
2018-08-25T07:23:19.796Z,12.87
2018-08-25T07:25:49.670Z,13.04
2018-08-25T07:28:18.740Z,13.25
2018-08-25T07:30:48.087Z,13.18
2018-08-25T07:33:17.813Z,13.25
2018-08-25T07:35:47.393Z,13.26
2018-08-25T07:38:16.872Z,13.22
2018-08-25T07:40:46.307Z,13.24
2018-08-25T07:43:15.752Z,13.27
2018-08-25T07:45:45.021Z,13.63
2018-08-25T07:48:14.169Z,13.93
2018-08-25T07:50:44.121Z,14.24
2018-08-25T07:53:14.153Z,14.56
2018-08-25T07:55:43.429Z,14.42
2018-08-25T07:58:12.462Z,14.37
2018-08-25T08:00:41.433Z,14.28
2018-08-25T08:03:12.239Z,13.91
2018-08-25T08:05:41.359Z,13.30
2018-08-25T08:08:10.428Z,12.93
2018-08-25T08:10:39.463Z,12.59
2018-08-25T08:13:08.616Z,12.49
2018-08-25T08:15:37.787Z,12.64
2018-08-25T08:18:06.942Z,12.96
2018-08-25T08:20:35.909Z,13.36
2018-08-25T08:23:04.965Z,13.82
2018-08-25T08:25:34.066Z,14.22
2018-08-25T08:28:03.197Z,14.15
2018-08-25T08:30:32.198Z,13.95
2018-08-25T08:33:01.654Z,14.04
2018-08-25T08:35:30.701Z,14.17
2018-08-25T08:37:59.908Z,14.57
2018-08-25T08:40:29.208Z,14.86
2018-08-25T08:42:58.404Z,15.04
2018-08-25T08:45:27.446Z,15.06
2018-08-25T08:47:57.566Z,14.60
2018-08-25T08:50:26.624Z,14.08
2018-08-25T08:52:55.757Z,13.26
2018-08-25T08:55:24.681Z,12.91
2018-08-25T08:57:53.749Z,12.62
2018-08-25T09:00:22.757Z,12.47
2018-08-25T09:02:52.153Z,12.41
2018-08-25T09:05:21.224Z,12.50
2018-08-25T09:07:50.646Z,12.68
2018-08-25T09:10:19.734Z,12.72
2018-08-25T09:12:48.825Z,12.80
2018-08-25T09:15:18.271Z,12.98
2018-08-25T09:17:47.447Z,12.95
2018-08-25T09:20:16.519Z,12.86
2018-08-25T09:22:45.667Z,12.83
2018-08-25T09:25:14.901Z,12.90
2018-08-25T09:27:44.110Z,12.94
2018-08-25T09:30:13.387Z,13.19
2018-08-25T09:32:42.593Z,13.86
2018-08-25T09:35:11.947Z,14.18
2018-08-25T09:37:41.117Z,14.12
2018-08-25T09:40:10.441Z,14.00
2018-08-25T09:42:40.367Z,14.12
2018-08-25T09:45:09.629Z,14.35
2018-08-25T09:47:39.324Z,14.40
2018-08-25T09:50:12.905Z,14.24
2018-08-25T09:52:42.065Z,14.10
2018-08-25T09:55:11.755Z,14.10
2018-08-25T09:57:40.926Z,14.23
2018-08-25T10:00:11.365Z,14.50
2018-08-25T10:02:40.921Z,14.71
2018-08-25T10:05:10.229Z,15.01
2018-08-25T10:07:40.458Z,15.10
2018-08-25T10:10:10.417Z,15.14
2018-08-25T10:12:39.702Z,15.38
2018-08-25T10:15:09.747Z,15.44
2018-08-25T10:17:39.898Z,15.29
2018-08-25T10:20:10.269Z,15.27
2018-08-25T10:22:39.400Z,15.55
2018-08-25T10:25:08.877Z,15.37
2018-08-25T10:27:38.106Z,15.08
2018-08-25T10:30:08.342Z,15.20
2018-08-25T10:32:37.487Z,15.44
2018-08-25T10:35:06.761Z,15.68
2018-08-25T10:37:36.172Z,16.01
2018-08-25T10:40:05.529Z,15.89
2018-08-25T10:42:34.770Z,16.37
2018-08-25T10:45:04.211Z,16.80
2018-08-25T10:47:33.621Z,17.09
2018-08-25T10:50:02.931Z,17.06
2018-08-25T10:52:32.117Z,17.19
2018-08-25T10:55:01.994Z,17.38
2018-08-25T10:57:31.455Z,17.38
2018-08-25T11:00:00.852Z,17.63
2018-08-25T11:02:30.113Z,17.82
2018-08-25T11:04:59.461Z,18.09
2018-08-25T11:07:28.706Z,17.92
2018-08-25T11:10:01.892Z,18.10
2018-08-25T11:12:31.102Z,17.98
2018-08-25T11:15:02.533Z,17.67
2018-08-25T11:17:32.123Z,17.48
2018-08-25T11:20:01.314Z,17.57
2018-08-25T11:22:30.590Z,17.61
2018-08-25T11:25:00.281Z,17.98
2018-08-25T11:27:29.914Z,17.72
2018-08-25T11:30:03.339Z,17.52
2018-08-25T11:32:32.776Z,17.20
2018-08-25T11:35:02.727Z,17.41
2018-08-25T11:37:32.365Z,17.89
2018-08-25T11:40:06.559Z,18.37
2018-08-25T11:42:35.854Z,18.61
2018-08-25T11:45:06.446Z,18.27
2018-08-25T11:47:36.152Z,18.32
2018-08-25T11:50:06.099Z,18.29
2018-08-25T11:52:35.909Z,18.35
2018-08-25T11:55:08.558Z,18.44
2018-08-25T11:57:37.845Z,18.33
2018-08-25T12:00:10.417Z,18.16
2018-08-25T12:02:39.993Z,18.27
2018-08-25T12:05:09.757Z,18.70
2018-08-25T12:07:39.001Z,19.02
2018-08-25T12:10:10.317Z,19.27
2018-08-25T12:12:39.534Z,19.17
2018-08-25T12:15:09.070Z,19.40
2018-08-25T12:17:38.635Z,19.88
2018-08-25T12:20:08.026Z,20.19
2018-08-25T12:22:37.898Z,20.17
2018-08-25T12:25:07.962Z,20.32
2018-08-25T12:27:37.406Z,20.60
2018-08-25T12:30:07.797Z,20.12
2018-08-25T12:32:38.297Z,20.36
2018-08-25T12:35:07.914Z,20.10
2018-08-25T12:37:37.848Z,20.69
2018-08-25T12:40:07.443Z,20.95
2018-08-25T12:42:36.613Z,20.73
2018-08-25T12:45:06.029Z,20.86
2018-08-25T12:47:35.754Z,21.44
2018-08-25T12:50:06.063Z,21.83
2018-08-25T12:52:35.279Z,21.96
2018-08-25T12:55:04.540Z,21.66
2018-08-25T12:57:34.035Z,22.21
2018-08-25T13:00:04.526Z,21.53
2018-08-25T13:02:33.859Z,21.85
2018-08-25T13:05:03.055Z,22.07
2018-08-25T13:07:32.424Z,22.82
2018-08-25T13:10:01.641Z,21.30
2018-08-25T13:12:31.337Z,19.89
2018-08-25T13:15:00.533Z,18.08
2018-08-25T13:17:29.722Z,16.07
2018-08-25T13:19:58.854Z,14.42
2018-08-25T13:22:28.458Z,13.45
2018-08-25T13:24:57.684Z,12.81
2018-08-25T13:27:26.895Z,12.52
2018-08-25T13:29:56.126Z,12.42
2018-08-25T13:32:25.391Z,12.40
2018-08-25T13:34:54.554Z,12.36
2018-08-25T13:37:23.725Z,12.39
2018-08-25T13:39:52.934Z,12.58
2018-08-25T13:42:22.217Z,12.79
2018-08-25T13:44:51.926Z,12.97
2018-08-25T13:47:21.568Z,13.14
2018-08-25T13:49:50.678Z,13.32
2018-08-25T13:52:20.043Z,13.51
2018-08-25T13:54:49.242Z,13.62
2018-08-25T13:57:18.497Z,13.71
2018-08-25T13:59:47.593Z,13.84
2018-08-25T14:02:16.797Z,13.95
2018-08-25T14:04:45.970Z,14.01
2018-08-25T14:07:15.475Z,14.12
2018-08-25T14:09:45.017Z,14.04
2018-08-25T14:12:14.273Z,13.99
2018-08-25T14:14:43.371Z,14.08
2018-08-25T14:17:12.689Z,13.99
2018-08-25T14:19:41.924Z,14.25
2018-08-25T14:22:11.129Z,14.72
2018-08-25T14:24:40.388Z,15.19
2018-08-25T14:27:09.573Z,15.57
2018-08-25T14:29:39.195Z,15.85
2018-08-25T14:32:08.408Z,16.56
2018-08-25T14:34:37.529Z,18.06
2018-08-25T14:37:07.237Z,18.85
2018-08-25T14:39:36.994Z,19.05
2018-08-25T14:42:06.530Z,18.95
2018-08-25T14:44:35.770Z,18.85
2018-08-25T14:47:05.095Z,18.88
2018-08-25T14:49:34.322Z,19.07
2018-08-25T14:52:03.582Z,19.29
2018-08-25T14:54:32.903Z,19.08
2018-08-25T14:57:02.039Z,18.73
2018-08-25T14:59:31.357Z,19.83
2018-08-25T15:02:00.501Z,20.58
2018-08-25T15:04:29.708Z,20.79
2018-08-25T15:06:58.893Z,20.81
2018-08-25T15:09:28.186Z,19.96
2018-08-25T15:11:57.605Z,19.73
2018-08-25T15:14:26.825Z,19.80
2018-08-25T15:16:56.497Z,21.40
2018-08-25T15:19:26.542Z,23.72
2018-08-25T15:21:56.067Z,24.93
2018-08-25T15:24:25.293Z,23.26
2018-08-25T15:26:56.337Z,22.84
2018-08-25T15:29:25.641Z,23.21
2018-08-25T15:31:54.813Z,22.12
2018-08-25T15:34:24.319Z,20.24
2018-08-25T15:36:53.877Z,19.15
2018-08-25T15:39:23.458Z,19.27
2018-08-25T15:41:53.215Z,19.77
2018-08-25T15:44:22.531Z,20.30
2018-08-25T15:46:56.258Z,20.34
2018-08-25T15:49:25.894Z,19.31
2018-08-25T15:51:56.557Z,18.37
2018-08-25T15:54:26.623Z,17.36
2018-08-25T15:56:56.546Z,17.14
2018-08-25T15:59:26.307Z,16.84
2018-08-25T16:01:56.699Z,16.51
2018-08-25T16:04:26.521Z,16.03
2018-08-25T16:06:56.434Z,15.78
2018-08-25T16:09:31.561Z,15.65
2018-08-25T16:12:00.816Z,15.55
2018-08-25T16:14:30.374Z,15.20
2018-08-25T16:17:00.342Z,15.23
2018-08-25T16:19:29.957Z,15.02
2018-08-25T16:21:59.379Z,14.89
2018-08-25T16:24:29.105Z,14.59
2018-08-25T16:26:58.644Z,14.12
2018-08-25T16:29:28.139Z,13.84
2018-08-25T16:31:57.405Z,13.53
2018-08-25T16:34:26.648Z,13.16
2018-08-25T16:36:55.809Z,12.96
2018-08-25T16:39:25.092Z,12.86
2018-08-25T16:41:54.222Z,12.76
2018-08-25T16:44:23.474Z,12.98
2018-08-25T16:46:52.824Z,13.99
2018-08-25T16:49:21.995Z,15.87
2018-08-25T16:51:51.263Z,17.02
2018-08-25T16:54:20.518Z,17.68
2018-08-25T16:56:49.682Z,18.42
2018-08-25T16:59:18.954Z,18.72
2018-08-25T17:01:48.097Z,19.18
2018-08-25T17:04:17.369Z,19.24
2018-08-25T17:06:46.651Z,18.97
2018-08-25T17:09:15.886Z,18.99
2018-08-25T17:11:45.033Z,18.92
2018-08-25T17:14:14.298Z,18.67
2018-08-25T17:16:43.569Z,17.98
2018-08-25T17:19:13.206Z,16.53
2018-08-25T17:21:42.369Z,15.42
2018-08-25T17:24:12.094Z,14.72
2018-08-25T17:26:41.454Z,14.32
2018-08-25T17:29:10.637Z,14.03
2018-08-25T17:31:41.197Z,13.76
2018-08-25T17:34:10.764Z,13.58
2018-08-25T17:36:40.199Z,13.47
2018-08-25T17:39:11.327Z,13.44
2018-08-25T17:41:41.021Z,13.32
2018-08-25T17:44:10.379Z,13.26
2018-08-25T17:46:39.562Z,13.33
2018-08-25T17:49:08.670Z,13.27
2018-08-25T17:51:37.723Z,13.18
2018-08-25T17:54:06.962Z,13.15
2018-08-25T17:56:36.143Z,13.14
2018-08-25T17:59:05.634Z,13.04
2018-08-25T18:01:37.753Z,12.87
2018-08-25T18:04:06.872Z,12.69
2018-08-25T18:06:36.033Z,12.50
2018-08-25T18:09:06.014Z,12.40
2018-08-25T18:11:35.119Z,12.28
2018-08-25T18:14:04.277Z,12.14
2018-08-25T18:16:33.452Z,12.13
2018-08-25T18:19:02.678Z,12.10
2018-08-25T18:21:31.914Z,12.12
2018-08-25T18:24:00.968Z,12.13
2018-08-25T18:26:30.199Z,12.07
2018-08-25T18:28:59.370Z,11.91
2018-08-25T18:31:28.462Z,11.83
2018-08-25T18:33:57.512Z,11.75
2018-08-25T18:36:26.578Z,11.61
2018-08-25T18:38:55.691Z,11.57
2018-08-25T18:41:24.966Z,11.49
2018-08-25T18:43:54.122Z,11.41
2018-08-25T18:46:23.298Z,11.38
2018-08-25T18:48:52.399Z,11.32
2018-08-25T18:51:21.645Z,11.26
2018-08-25T18:53:50.847Z,11.26
2018-08-25T18:56:20.034Z,11.27
2018-08-25T18:58:49.193Z,11.35
2018-08-25T19:01:18.477Z,11.33
2018-08-25T19:03:47.758Z,11.34
2018-08-25T19:06:17.092Z,11.35
2018-08-25T19:08:46.425Z,11.40
2018-08-25T19:11:15.799Z,11.37
2018-08-25T19:13:45.117Z,11.37
2018-08-25T19:16:14.286Z,11.37
2018-08-25T19:18:43.460Z,11.38
2018-08-25T19:21:12.673Z,11.41
2018-08-25T19:23:41.894Z,11.39
2018-08-25T19:26:11.268Z,11.41
2018-08-25T19:28:40.410Z,11.41
2018-08-25T19:31:09.799Z,11.38
2018-08-25T19:33:38.875Z,11.34
2018-08-25T19:36:08.018Z,11.31
2018-08-25T19:38:37.252Z,11.25
2018-08-25T19:41:06.929Z,11.16
2018-08-25T19:43:36.063Z,11.17
2018-08-25T19:46:05.421Z,11.13
2018-08-25T19:48:34.681Z,11.13
2018-08-25T19:51:03.948Z,11.06
2018-08-25T19:53:33.114Z,10.95
2018-08-25T19:56:02.590Z,10.93
2018-08-25T19:58:31.674Z,10.83
2018-08-25T20:01:00.820Z,10.83
2018-08-25T20:03:29.977Z,10.80
2018-08-25T20:05:59.007Z,10.82
2018-08-25T20:08:28.118Z,10.78
2018-08-25T20:10:57.419Z,10.73
2018-08-25T20:13:26.511Z,10.70
2018-08-25T20:15:55.634Z,10.70
2018-08-25T20:18:24.672Z,10.69
2018-08-25T20:20:53.792Z,10.58
2018-08-25T20:23:22.957Z,10.63
2018-08-25T20:25:52.294Z,10.56
2018-08-25T20:28:21.567Z,10.43
2018-08-25T20:30:50.781Z,10.40
2018-08-25T20:33:19.978Z,10.41
2018-08-25T20:35:49.224Z,10.34
2018-08-25T20:38:18.500Z,10.36
2018-08-25T20:40:47.565Z,10.30
2018-08-25T20:43:16.818Z,10.26
2018-08-25T20:45:45.997Z,10.19
2018-08-25T20:48:15.047Z,10.10
2018-08-25T20:50:44.439Z,10.11
2018-08-25T20:53:13.530Z,10.02
2018-08-25T20:55:42.777Z,9.91
2018-08-25T20:58:12.017Z,9.88
2018-08-25T21:00:41.220Z,9.83
2018-08-25T21:03:10.277Z,9.86
2018-08-25T21:05:39.397Z,9.92
2018-08-25T21:08:08.614Z,9.82
2018-08-25T21:10:37.802Z,9.82
2018-08-25T21:13:06.937Z,9.79
2018-08-25T21:15:36.049Z,9.70
2018-08-25T21:18:05.211Z,9.64
2018-08-25T21:20:34.206Z,9.59
2018-08-25T21:23:03.471Z,9.54
2018-08-25T21:25:32.519Z,9.64
2018-08-25T21:28:01.692Z,9.59
2018-08-25T21:30:30.801Z,9.57
2018-08-25T21:33:00.944Z,9.52
2018-08-25T21:35:30.060Z,9.46
2018-08-25T21:37:59.161Z,9.51
2018-08-25T21:40:28.385Z,9.55
2018-08-25T21:42:57.757Z,9.53
2018-08-25T21:45:26.852Z,9.52
2018-08-25T21:47:56.108Z,9.44
2018-08-25T21:50:25.373Z,9.35
2018-08-25T21:52:54.563Z,9.29
2018-08-25T21:55:23.893Z,9.28
2018-08-25T21:57:52.961Z,9.34
2018-08-25T22:00:22.092Z,9.45
2018-08-25T22:02:51.246Z,9.49
2018-08-25T22:05:20.314Z,9.48
2018-08-25T22:07:49.503Z,9.53
2018-08-25T22:10:18.718Z,9.52
2018-08-25T22:12:47.892Z,9.49
2018-08-25T22:15:17.028Z,9.45
2018-08-25T22:17:46.676Z,9.41
2018-08-25T22:20:15.751Z,9.36
2018-08-25T22:22:44.957Z,9.39
2018-08-25T22:25:14.143Z,9.46
2018-08-25T22:27:43.362Z,9.47
2018-08-25T22:30:12.557Z,9.53
2018-08-25T22:32:41.766Z,9.55
2018-08-25T22:35:10.877Z,9.56
2018-08-25T22:37:39.978Z,9.50
2018-08-25T22:40:09.736Z,9.41
2018-08-25T22:42:38.744Z,9.33
2018-08-25T22:45:08.322Z,9.28
2018-08-25T22:47:37.479Z,9.30
2018-08-25T22:50:06.742Z,9.36
2018-08-25T22:52:41.034Z,9.34
2018-08-25T22:55:10.120Z,9.34
2018-08-25T22:57:39.263Z,9.29
2018-08-25T23:00:08.359Z,9.29
2018-08-25T23:02:40.833Z,9.28
2018-08-25T23:05:10.260Z,9.25
2018-08-25T23:07:39.809Z,9.28
2018-08-25T23:10:09.097Z,9.24
2018-08-25T23:12:38.119Z,9.22
2018-08-25T23:15:07.544Z,9.30
2018-08-25T23:17:36.723Z,9.30
2018-08-25T23:20:06.052Z,9.30
2018-08-25T23:22:35.184Z,9.31
2018-08-25T23:25:04.515Z,9.31
2018-08-25T23:27:34.148Z,9.30
2018-08-25T23:30:03.324Z,9.26
2018-08-25T23:32:32.397Z,9.25
2018-08-25T23:35:01.518Z,9.24
2018-08-25T23:37:30.643Z,9.24
2018-08-25T23:39:59.864Z,9.25
2018-08-25T23:42:29.102Z,9.23
2018-08-25T23:44:58.570Z,9.24
2018-08-25T23:47:27.725Z,9.19
2018-08-25T23:49:57.092Z,9.27
2018-08-25T23:52:26.137Z,9.41
2018-08-25T23:54:55.342Z,9.50
2018-08-25T23:57:24.453Z,9.57
2018-08-25T23:59:53.713Z,9.53
